sensor_id;sensor_type;location;lat;lon;timestamp;P1;durP1;ratioP1;P2;durP2;ratioP2
10719;SDS011;5411;58.386;15.560;2023-07-31T00:00:55;3.60;;;1.90;;
10719;SDS011;5411;58.386;15.560;2023-07-31T00:03:25;3.37;;;2.50;;
10719;SDS011;5411;58.386;15.560;2023-07-31T00:05:54;3.43;;;2.20;;
10719;SDS011;5411;58.386;15.560;2023-07-31T00:08:23;6.17;;;2.23;;
10719;SDS011;5411;58.386;15.560;2023-07-31T00:10:51;3.90;;;2.10;;
10719;SDS011;5411;58.386;15.560;2023-07-31T00:13:23;3.30;;;2.17;;
10719;SDS011;5411;58.386;15.560;2023-07-31T00:15:52;3.17;;;1.97;;
10719;SDS011;5411;58.386;15.560;2023-07-31T00:18:20;3.87;;;2.00;;
10719;SDS011;5411;58.386;15.560;2023-07-31T00:20:51;4.37;;;2.40;;
10719;SDS011;5411;58.386;15.560;2023-07-31T00:23:20;4.37;;;2.20;;
10719;SDS011;5411;58.386;15.560;2023-07-31T00:25:49;2.60;;;2.10;;
10719;SDS011;5411;58.386;15.560;2023-07-31T00:28:17;4.10;;;2.30;;
10719;SDS011;5411;58.386;15.560;2023-07-31T00:30:46;3.57;;;2.67;;
10719;SDS011;5411;58.386;15.560;2023-07-31T00:33:14;2.50;;;2.30;;
10719;SDS011;5411;58.386;15.560;2023-07-31T00:35:45;3.83;;;2.30;;
10719;SDS011;5411;58.386;15.560;2023-07-31T00:38:14;3.33;;;2.57;;
10719;SDS011;5411;58.386;15.560;2023-07-31T00:40:43;4.03;;;2.10;;
10719;SDS011;5411;58.386;15.560;2023-07-31T00:43:13;4.83;;;2.43;;
10719;SDS011;5411;58.386;15.560;2023-07-31T00:45:42;4.97;;;2.30;;
10719;SDS011;5411;58.386;15.560;2023-07-31T00:48:10;4.83;;;2.40;;
10719;SDS011;5411;58.386;15.560;2023-07-31T00:50:42;4.73;;;2.47;;
10719;SDS011;5411;58.386;15.560;2023-07-31T00:53:15;2.40;;;2.20;;
10719;SDS011;5411;58.386;15.560;2023-07-31T00:55:43;3.83;;;2.33;;
10719;SDS011;5411;58.386;15.560;2023-07-31T00:58:12;4.57;;;2.13;;
10719;SDS011;5411;58.386;15.560;2023-07-31T01:00:41;4.57;;;2.27;;
10719;SDS011;5411;58.386;15.560;2023-07-31T01:03:10;4.23;;;2.60;;
10719;SDS011;5411;58.386;15.560;2023-07-31T01:05:43;5.23;;;2.30;;
10719;SDS011;5411;58.386;15.560;2023-07-31T01:08:32;5.47;;;2.30;;
10719;SDS011;5411;58.386;15.560;2023-07-31T01:11:10;6.27;;;2.50;;
10719;SDS011;5411;58.386;15.560;2023-07-31T01:13:44;3.77;;;2.20;;
10719;SDS011;5411;58.386;15.560;2023-07-31T01:16:13;5.07;;;2.30;;
10719;SDS011;5411;58.386;15.560;2023-07-31T01:18:42;4.70;;;2.57;;
10719;SDS011;5411;58.386;15.560;2023-07-31T01:21:16;5.93;;;2.70;;
10719;SDS011;5411;58.386;15.560;2023-07-31T01:23:56;3.97;;;2.70;;
10719;SDS011;5411;58.386;15.560;2023-07-31T01:26:44;6.07;;;2.50;;
10719;SDS011;5411;58.386;15.560;2023-07-31T01:29:17;4.93;;;2.57;;
10719;SDS011;5411;58.386;15.560;2023-07-31T01:31:53;4.57;;;2.80;;
10719;SDS011;5411;58.386;15.560;2023-07-31T01:34:23;5.07;;;2.30;;
10719;SDS011;5411;58.386;15.560;2023-07-31T01:36:52;5.63;;;2.70;;
10719;SDS011;5411;58.386;15.560;2023-07-31T01:39:21;3.33;;;2.17;;
10719;SDS011;5411;58.386;15.560;2023-07-31T01:41:51;4.57;;;3.10;;
10719;SDS011;5411;58.386;15.560;2023-07-31T01:44:19;4.90;;;2.30;;
10719;SDS011;5411;58.386;15.560;2023-07-31T01:46:47;6.33;;;2.93;;
10719;SDS011;5411;58.386;15.560;2023-07-31T01:49:16;6.07;;;2.87;;
10719;SDS011;5411;58.386;15.560;2023-07-31T01:51:46;4.77;;;2.57;;
10719;SDS011;5411;58.386;15.560;2023-07-31T01:54:14;5.30;;;2.90;;
10719;SDS011;5411;58.386;15.560;2023-07-31T01:56:43;5.03;;;2.90;;
10719;SDS011;5411;58.386;15.560;2023-07-31T01:59:13;4.07;;;2.60;;
10719;SDS011;5411;58.386;15.560;2023-07-31T02:01:41;6.33;;;2.50;;
10719;SDS011;5411;58.386;15.560;2023-07-31T02:04:10;3.30;;;2.50;;
10719;SDS011;5411;58.386;15.560;2023-07-31T02:06:38;2.70;;;2.50;;
10719;SDS011;5411;58.386;15.560;2023-07-31T02:09:07;5.43;;;3.00;;
10719;SDS011;5411;58.386;15.560;2023-07-31T02:11:38;4.70;;;3.20;;
10719;SDS011;5411;58.386;15.560;2023-07-31T02:14:08;4.90;;;2.63;;
10719;SDS011;5411;58.386;15.560;2023-07-31T02:16:38;3.73;;;2.67;;
10719;SDS011;5411;58.386;15.560;2023-07-31T02:19:07;3.87;;;2.53;;
10719;SDS011;5411;58.386;15.560;2023-07-31T02:21:37;6.47;;;3.10;;
10719;SDS011;5411;58.386;15.560;2023-07-31T02:24:06;5.97;;;3.23;;
10719;SDS011;5411;58.386;15.560;2023-07-31T02:26:35;3.27;;;2.80;;
10719;SDS011;5411;58.386;15.560;2023-07-31T02:29:03;6.53;;;3.00;;
10719;SDS011;5411;58.386;15.560;2023-07-31T02:31:34;4.17;;;2.93;;
10719;SDS011;5411;58.386;15.560;2023-07-31T02:34:04;6.40;;;2.73;;
10719;SDS011;5411;58.386;15.560;2023-07-31T02:36:32;4.43;;;3.00;;
10719;SDS011;5411;58.386;15.560;2023-07-31T02:39:01;4.43;;;2.80;;
10719;SDS011;5411;58.386;15.560;2023-07-31T02:41:30;4.60;;;3.50;;
10719;SDS011;5411;58.386;15.560;2023-07-31T02:43:59;4.33;;;2.93;;
10719;SDS011;5411;58.386;15.560;2023-07-31T02:46:27;5.20;;;3.37;;
10719;SDS011;5411;58.386;15.560;2023-07-31T02:48:55;4.43;;;2.87;;
10719;SDS011;5411;58.386;15.560;2023-07-31T02:51:26;5.73;;;3.50;;
10719;SDS011;5411;58.386;15.560;2023-07-31T02:53:55;2.93;;;2.70;;
10719;SDS011;5411;58.386;15.560;2023-07-31T02:56:23;6.83;;;3.53;;
10719;SDS011;5411;58.386;15.560;2023-07-31T02:58:51;3.83;;;3.00;;
10719;SDS011;5411;58.386;15.560;2023-07-31T03:01:20;3.27;;;2.97;;
10719;SDS011;5411;58.386;15.560;2023-07-31T03:03:48;3.90;;;2.63;;
10719;SDS011;5411;58.386;15.560;2023-07-31T03:06:16;4.70;;;3.03;;
10719;SDS011;5411;58.386;15.560;2023-07-31T03:08:46;4.33;;;2.70;;
10719;SDS011;5411;58.386;15.560;2023-07-31T03:11:16;4.40;;;2.80;;
10719;SDS011;5411;58.386;15.560;2023-07-31T03:13:45;4.43;;;2.80;;
10719;SDS011;5411;58.386;15.560;2023-07-31T03:16:13;3.43;;;2.67;;
10719;SDS011;5411;58.386;15.560;2023-07-31T03:18:46;5.37;;;2.83;;
10719;SDS011;5411;58.386;15.560;2023-07-31T03:21:14;5.10;;;3.30;;
10719;SDS011;5411;58.386;15.560;2023-07-31T03:23:43;5.03;;;3.30;;
10719;SDS011;5411;58.386;15.560;2023-07-31T03:26:14;4.40;;;3.37;;
10719;SDS011;5411;58.386;15.560;2023-07-31T03:28:43;3.83;;;2.90;;
10719;SDS011;5411;58.386;15.560;2023-07-31T03:31:12;4.37;;;3.00;;
10719;SDS011;5411;58.386;15.560;2023-07-31T03:33:40;5.23;;;3.20;;
10719;SDS011;5411;58.386;15.560;2023-07-31T03:36:09;3.73;;;3.13;;
10719;SDS011;5411;58.386;15.560;2023-07-31T03:38:37;3.93;;;3.03;;
10719;SDS011;5411;58.386;15.560;2023-07-31T03:41:06;5.53;;;3.27;;
10719;SDS011;5411;58.386;15.560;2023-07-31T03:43:40;4.20;;;3.07;;
10719;SDS011;5411;58.386;15.560;2023-07-31T03:46:08;4.10;;;3.03;;
10719;SDS011;5411;58.386;15.560;2023-07-31T03:48:37;3.53;;;3.23;;
10719;SDS011;5411;58.386;15.560;2023-07-31T03:51:05;5.70;;;3.20;;
10719;SDS011;5411;58.386;15.560;2023-07-31T03:53:34;5.53;;;3.33;;
10719;SDS011;5411;58.386;15.560;2023-07-31T03:56:02;5.37;;;3.30;;
10719;SDS011;5411;58.386;15.560;2023-07-31T03:58:31;5.80;;;3.10;;
10719;SDS011;5411;58.386;15.560;2023-07-31T04:01:00;4.63;;;3.00;;
10719;SDS011;5411;58.386;15.560;2023-07-31T04:03:30;4.30;;;2.80;;
10719;SDS011;5411;58.386;15.560;2023-07-31T04:05:58;5.77;;;2.97;;
10719;SDS011;5411;58.386;15.560;2023-07-31T04:08:27;4.43;;;3.20;;
10719;SDS011;5411;58.386;15.560;2023-07-31T04:10:55;4.27;;;3.27;;
10719;SDS011;5411;58.386;15.560;2023-07-31T04:13:24;4.87;;;3.27;;
10719;SDS011;5411;58.386;15.560;2023-07-31T04:15:54;3.30;;;2.97;;
10719;SDS011;5411;58.386;15.560;2023-07-31T04:18:24;3.37;;;2.90;;
10719;SDS011;5411;58.386;15.560;2023-07-31T04:20:52;3.40;;;3.10;;
10719;SDS011;5411;58.386;15.560;2023-07-31T04:23:21;3.03;;;2.80;;
10719;SDS011;5411;58.386;15.560;2023-07-31T04:25:50;7.63;;;3.03;;
10719;SDS011;5411;58.386;15.560;2023-07-31T04:28:18;4.10;;;3.13;;
10719;SDS011;5411;58.386;15.560;2023-07-31T04:30:47;5.83;;;2.90;;
10719;SDS011;5411;58.386;15.560;2023-07-31T04:33:16;5.27;;;2.77;;
10719;SDS011;5411;58.386;15.560;2023-07-31T04:35:49;4.07;;;2.73;;
10719;SDS011;5411;58.386;15.560;2023-07-31T04:38:19;6.03;;;2.93;;
10719;SDS011;5411;58.386;15.560;2023-07-31T04:40:50;5.57;;;3.27;;
10719;SDS011;5411;58.386;15.560;2023-07-31T04:43:19;4.00;;;2.90;;
10719;SDS011;5411;58.386;15.560;2023-07-31T04:45:48;3.80;;;2.90;;
10719;SDS011;5411;58.386;15.560;2023-07-31T04:48:17;4.47;;;3.10;;
10719;SDS011;5411;58.386;15.560;2023-07-31T04:50:45;5.23;;;3.10;;
10719;SDS011;5411;58.386;15.560;2023-07-31T04:53:15;3.00;;;2.40;;
10719;SDS011;5411;58.386;15.560;2023-07-31T04:55:44;5.30;;;3.10;;
10719;SDS011;5411;58.386;15.560;2023-07-31T04:58:12;6.77;;;2.87;;
10719;SDS011;5411;58.386;15.560;2023-07-31T05:00:41;3.33;;;2.80;;
10719;SDS011;5411;58.386;15.560;2023-07-31T05:03:09;3.33;;;2.80;;
10719;SDS011;5411;58.386;15.560;2023-07-31T05:05:38;4.73;;;2.53;;
10719;SDS011;5411;58.386;15.560;2023-07-31T05:08:06;4.17;;;2.40;;
10719;SDS011;5411;58.386;15.560;2023-07-31T05:10:36;3.53;;;3.23;;
10719;SDS011;5411;58.386;15.560;2023-07-31T05:13:05;3.20;;;2.70;;
10719;SDS011;5411;58.386;15.560;2023-07-31T05:15:34;2.97;;;2.50;;
10719;SDS011;5411;58.386;15.560;2023-07-31T05:18:03;4.17;;;3.07;;
10719;SDS011;5411;58.386;15.560;2023-07-31T05:20:31;4.07;;;2.80;;
10719;SDS011;5411;58.386;15.560;2023-07-31T05:23:04;4.87;;;2.93;;
10719;SDS011;5411;58.386;15.560;2023-07-31T05:25:32;3.83;;;2.43;;
10719;SDS011;5411;58.386;15.560;2023-07-31T05:28:03;5.43;;;2.63;;
10719;SDS011;5411;58.386;15.560;2023-07-31T05:30:32;4.30;;;2.70;;
10719;SDS011;5411;58.386;15.560;2023-07-31T05:33:00;3.43;;;3.10;;
10719;SDS011;5411;58.386;15.560;2023-07-31T05:35:29;3.00;;;2.73;;
10719;SDS011;5411;58.386;15.560;2023-07-31T05:37:57;3.37;;;2.60;;
10719;SDS011;5411;58.386;15.560;2023-07-31T05:40:26;3.07;;;2.43;;
10719;SDS011;5411;58.386;15.560;2023-07-31T05:42:54;3.80;;;2.53;;
10719;SDS011;5411;58.386;15.560;2023-07-31T05:45:25;3.33;;;2.60;;
10719;SDS011;5411;58.386;15.560;2023-07-31T05:47:53;4.60;;;3.00;;
10719;SDS011;5411;58.386;15.560;2023-07-31T05:50:21;3.20;;;2.90;;
10719;SDS011;5411;58.386;15.560;2023-07-31T05:52:50;3.47;;;2.80;;
10719;SDS011;5411;58.386;15.560;2023-07-31T05:55:18;4.63;;;3.17;;
10719;SDS011;5411;58.386;15.560;2023-07-31T05:57:47;7.27;;;2.90;;
10719;SDS011;5411;58.386;15.560;2023-07-31T06:00:15;3.00;;;2.37;;
10719;SDS011;5411;58.386;15.560;2023-07-31T06:02:48;3.73;;;2.60;;
10719;SDS011;5411;58.386;15.560;2023-07-31T06:05:17;3.27;;;2.70;;
10719;SDS011;5411;58.386;15.560;2023-07-31T06:07:45;4.07;;;2.77;;
10719;SDS011;5411;58.386;15.560;2023-07-31T06:10:14;5.07;;;2.47;;
10719;SDS011;5411;58.386;15.560;2023-07-31T06:12:43;3.37;;;2.50;;
10719;SDS011;5411;58.386;15.560;2023-07-31T06:15:11;3.93;;;2.60;;
10719;SDS011;5411;58.386;15.560;2023-07-31T06:17:39;3.07;;;2.70;;
10719;SDS011;5411;58.386;15.560;2023-07-31T06:20:11;2.67;;;2.40;;
10719;SDS011;5411;58.386;15.560;2023-07-31T06:22:41;3.50;;;2.60;;
10719;SDS011;5411;58.386;15.560;2023-07-31T06:25:09;5.23;;;2.47;;
10719;SDS011;5411;58.386;15.560;2023-07-31T06:27:41;3.37;;;2.50;;
10719;SDS011;5411;58.386;15.560;2023-07-31T06:30:09;4.97;;;2.13;;
10719;SDS011;5411;58.386;15.560;2023-07-31T06:32:39;3.60;;;2.27;;
10719;SDS011;5411;58.386;15.560;2023-07-31T06:35:08;3.43;;;2.67;;
10719;SDS011;5411;58.386;15.560;2023-07-31T06:37:38;4.97;;;2.43;;
10719;SDS011;5411;58.386;15.560;2023-07-31T06:40:10;3.93;;;2.40;;
10719;SDS011;5411;58.386;15.560;2023-07-31T06:42:38;2.73;;;2.30;;
10719;SDS011;5411;58.386;15.560;2023-07-31T06:45:08;3.27;;;2.70;;
10719;SDS011;5411;58.386;15.560;2023-07-31T06:47:38;4.20;;;2.40;;
10719;SDS011;5411;58.386;15.560;2023-07-31T06:50:07;4.60;;;2.30;;
10719;SDS011;5411;58.386;15.560;2023-07-31T06:52:37;5.23;;;2.83;;
10719;SDS011;5411;58.386;15.560;2023-07-31T06:55:15;5.67;;;2.50;;
10719;SDS011;5411;58.386;15.560;2023-07-31T06:57:45;3.30;;;2.73;;
10719;SDS011;5411;58.386;15.560;2023-07-31T07:00:14;3.83;;;2.10;;
10719;SDS011;5411;58.386;15.560;2023-07-31T07:02:43;4.70;;;2.50;;
10719;SDS011;5411;58.386;15.560;2023-07-31T07:05:14;5.17;;;2.90;;
10719;SDS011;5411;58.386;15.560;2023-07-31T07:07:44;4.17;;;2.30;;
10719;SDS011;5411;58.386;15.560;2023-07-31T07:10:13;5.03;;;2.63;;
10719;SDS011;5411;58.386;15.560;2023-07-31T07:12:41;4.73;;;2.30;;
10719;SDS011;5411;58.386;15.560;2023-07-31T07:15:09;3.20;;;2.07;;
10719;SDS011;5411;58.386;15.560;2023-07-31T07:17:38;3.20;;;2.50;;
10719;SDS011;5411;58.386;15.560;2023-07-31T07:20:07;3.63;;;2.10;;
10719;SDS011;5411;58.386;15.560;2023-07-31T07:22:36;5.03;;;2.20;;
10719;SDS011;5411;58.386;15.560;2023-07-31T07:25:07;4.23;;;2.40;;
10719;SDS011;5411;58.386;15.560;2023-07-31T07:27:35;3.30;;;2.33;;
10719;SDS011;5411;58.386;15.560;2023-07-31T07:30:05;3.90;;;2.00;;
10719;SDS011;5411;58.386;15.560;2023-07-31T07:32:34;4.53;;;2.07;;
10719;SDS011;5411;58.386;15.560;2023-07-31T07:35:05;6.53;;;2.40;;
10719;SDS011;5411;58.386;15.560;2023-07-31T07:37:34;3.70;;;2.57;;
10719;SDS011;5411;58.386;15.560;2023-07-31T07:40:03;4.00;;;2.50;;
10719;SDS011;5411;58.386;15.560;2023-07-31T07:42:35;5.90;;;2.20;;
10719;SDS011;5411;58.386;15.560;2023-07-31T07:45:04;3.77;;;2.10;;
10719;SDS011;5411;58.386;15.560;2023-07-31T07:47:33;4.30;;;2.60;;
10719;SDS011;5411;58.386;15.560;2023-07-31T07:50:04;4.73;;;2.17;;
10719;SDS011;5411;58.386;15.560;2023-07-31T07:52:35;3.43;;;2.20;;
10719;SDS011;5411;58.386;15.560;2023-07-31T07:55:04;3.00;;;2.30;;
10719;SDS011;5411;58.386;15.560;2023-07-31T07:57:33;3.97;;;2.10;;
10719;SDS011;5411;58.386;15.560;2023-07-31T08:00:06;3.47;;;2.03;;
10719;SDS011;5411;58.386;15.560;2023-07-31T08:02:37;4.37;;;1.90;;
10719;SDS011;5411;58.386;15.560;2023-07-31T08:05:05;2.87;;;1.73;;
10719;SDS011;5411;58.386;15.560;2023-07-31T08:07:37;3.37;;;1.83;;
10719;SDS011;5411;58.386;15.560;2023-07-31T08:10:06;4.17;;;2.07;;
10719;SDS011;5411;58.386;15.560;2023-07-31T08:12:34;3.23;;;1.83;;
10719;SDS011;5411;58.386;15.560;2023-07-31T08:15:05;4.27;;;2.20;;
10719;SDS011;5411;58.386;15.560;2023-07-31T08:17:34;3.20;;;1.87;;
10719;SDS011;5411;58.386;15.560;2023-07-31T08:20:03;3.37;;;2.00;;
10719;SDS011;5411;58.386;15.560;2023-07-31T08:22:33;3.67;;;1.83;;
10719;SDS011;5411;58.386;15.560;2023-07-31T08:25:02;2.50;;;1.97;;
10719;SDS011;5411;58.386;15.560;2023-07-31T08:27:32;3.27;;;1.90;;
10719;SDS011;5411;58.386;15.560;2023-07-31T08:30:01;2.93;;;2.07;;
10719;SDS011;5411;58.386;15.560;2023-07-31T08:32:33;2.77;;;1.90;;
10719;SDS011;5411;58.386;15.560;2023-07-31T08:35:01;3.27;;;1.97;;
10719;SDS011;5411;58.386;15.560;2023-07-31T08:37:37;3.07;;;1.97;;
10719;SDS011;5411;58.386;15.560;2023-07-31T08:40:06;2.67;;;1.93;;
10719;SDS011;5411;58.386;15.560;2023-07-31T08:42:42;5.80;;;2.60;;
10719;SDS011;5411;58.386;15.560;2023-07-31T08:45:13;2.43;;;1.80;;
10719;SDS011;5411;58.386;15.560;2023-07-31T08:47:47;1.70;;;1.60;;
10719;SDS011;5411;58.386;15.560;2023-07-31T08:50:18;3.00;;;2.23;;
10719;SDS011;5411;58.386;15.560;2023-07-31T08:52:50;2.67;;;1.80;;
10719;SDS011;5411;58.386;15.560;2023-07-31T08:55:23;3.07;;;1.83;;
10719;SDS011;5411;58.386;15.560;2023-07-31T08:57:52;6.07;;;2.23;;
10719;SDS011;5411;58.386;15.560;2023-07-31T09:00:25;3.33;;;1.80;;
10719;SDS011;5411;58.386;15.560;2023-07-31T09:02:56;3.23;;;1.90;;
10719;SDS011;5411;58.386;15.560;2023-07-31T09:05:29;2.87;;;1.60;;
10719;SDS011;5411;58.386;15.560;2023-07-31T09:07:58;3.97;;;1.77;;
10719;SDS011;5411;58.386;15.560;2023-07-31T09:10:28;5.97;;;2.20;;
10719;SDS011;5411;58.386;15.560;2023-07-31T09:12:56;1.90;;;1.50;;
10719;SDS011;5411;58.386;15.560;2023-07-31T09:15:25;2.00;;;1.50;;
10719;SDS011;5411;58.386;15.560;2023-07-31T09:18:06;3.70;;;1.90;;
10719;SDS011;5411;58.386;15.560;2023-07-31T09:20:37;3.47;;;2.20;;
10719;SDS011;5411;58.386;15.560;2023-07-31T09:23:06;3.10;;;1.50;;
10719;SDS011;5411;58.386;15.560;2023-07-31T09:25:37;3.00;;;1.60;;
10719;SDS011;5411;58.386;15.560;2023-07-31T09:28:07;2.53;;;2.07;;
10719;SDS011;5411;58.386;15.560;2023-07-31T09:33:25;2.90;;;1.87;;
10719;SDS011;5411;58.386;15.560;2023-07-31T09:35:53;2.87;;;1.80;;
10719;SDS011;5411;58.386;15.560;2023-07-31T09:38:21;2.87;;;1.70;;
10719;SDS011;5411;58.386;15.560;2023-07-31T09:40:50;3.27;;;1.93;;
10719;SDS011;5411;58.386;15.560;2023-07-31T09:43:20;3.37;;;1.83;;
10719;SDS011;5411;58.386;15.560;2023-07-31T09:45:54;3.33;;;1.90;;
10719;SDS011;5411;58.386;15.560;2023-07-31T09:48:28;3.57;;;1.67;;
10719;SDS011;5411;58.386;15.560;2023-07-31T09:51:00;2.93;;;1.70;;
10719;SDS011;5411;58.386;15.560;2023-07-31T09:53:32;2.87;;;1.60;;
10719;SDS011;5411;58.386;15.560;2023-07-31T09:56:01;2.47;;;1.73;;
10719;SDS011;5411;58.386;15.560;2023-07-31T09:58:30;2.20;;;1.80;;
10719;SDS011;5411;58.386;15.560;2023-07-31T10:01:04;2.40;;;2.03;;
10719;SDS011;5411;58.386;15.560;2023-07-31T10:03:35;2.60;;;1.60;;
10719;SDS011;5411;58.386;15.560;2023-07-31T10:06:07;3.10;;;2.03;;
10719;SDS011;5411;58.386;15.560;2023-07-31T10:08:37;3.67;;;1.83;;
10719;SDS011;5411;58.386;15.560;2023-07-31T10:11:07;2.30;;;1.83;;
10719;SDS011;5411;58.386;15.560;2023-07-31T10:13:50;3.60;;;2.03;;
10719;SDS011;5411;58.386;15.560;2023-07-31T10:16:19;2.53;;;1.70;;
10719;SDS011;5411;58.386;15.560;2023-07-31T10:18:50;1.70;;;1.60;;
10719;SDS011;5411;58.386;15.560;2023-07-31T10:21:23;4.17;;;1.80;;
10719;SDS011;5411;58.386;15.560;2023-07-31T10:23:54;5.30;;;2.20;;
10719;SDS011;5411;58.386;15.560;2023-07-31T10:26:24;2.17;;;1.53;;
10719;SDS011;5411;58.386;15.560;2023-07-31T10:28:54;3.60;;;1.77;;
10719;SDS011;5411;58.386;15.560;2023-07-31T10:31:23;4.03;;;2.10;;
10719;SDS011;5411;58.386;15.560;2023-07-31T10:33:53;2.50;;;1.80;;
10719;SDS011;5411;58.386;15.560;2023-07-31T10:36:23;2.50;;;1.43;;
10719;SDS011;5411;58.386;15.560;2023-07-31T10:38:54;3.43;;;1.83;;
10719;SDS011;5411;58.386;15.560;2023-07-31T10:41:28;2.70;;;1.70;;
10719;SDS011;5411;58.386;15.560;2023-07-31T10:43:59;1.50;;;1.30;;
10719;SDS011;5411;58.386;15.560;2023-07-31T10:46:28;1.87;;;1.50;;
10719;SDS011;5411;58.386;15.560;2023-07-31T10:49:03;2.50;;;1.80;;
10719;SDS011;5411;58.386;15.560;2023-07-31T10:51:35;2.00;;;1.50;;
10719;SDS011;5411;58.386;15.560;2023-07-31T10:54:10;3.83;;;1.80;;
10719;SDS011;5411;58.386;15.560;2023-07-31T10:56:39;3.00;;;1.87;;
10719;SDS011;5411;58.386;15.560;2023-07-31T10:59:08;2.07;;;1.60;;
10719;SDS011;5411;58.386;15.560;2023-07-31T11:01:51;1.90;;;1.70;;
10719;SDS011;5411;58.386;15.560;2023-07-31T11:04:25;2.30;;;1.60;;
10719;SDS011;5411;58.386;15.560;2023-07-31T11:06:55;5.80;;;2.30;;
10719;SDS011;5411;58.386;15.560;2023-07-31T11:09:25;3.30;;;1.60;;
10719;SDS011;5411;58.386;15.560;2023-07-31T11:11:56;2.67;;;1.77;;
10719;SDS011;5411;58.386;15.560;2023-07-31T11:14:26;1.93;;;1.30;;
10719;SDS011;5411;58.386;15.560;2023-07-31T11:16:54;2.90;;;1.50;;
10719;SDS011;5411;58.386;15.560;2023-07-31T11:19:25;2.10;;;1.80;;
10719;SDS011;5411;58.386;15.560;2023-07-31T11:21:54;2.07;;;1.50;;
10719;SDS011;5411;58.386;15.560;2023-07-31T11:24:24;1.50;;;1.40;;
10719;SDS011;5411;58.386;15.560;2023-07-31T11:26:52;1.83;;;1.50;;
10719;SDS011;5411;58.386;15.560;2023-07-31T11:29:21;1.60;;;1.50;;
10719;SDS011;5411;58.386;15.560;2023-07-31T11:31:55;2.60;;;1.40;;
10719;SDS011;5411;58.386;15.560;2023-07-31T11:34:25;3.00;;;1.50;;
10719;SDS011;5411;58.386;15.560;2023-07-31T11:36:53;3.13;;;1.60;;
10719;SDS011;5411;58.386;15.560;2023-07-31T11:39:22;2.30;;;1.40;;
10719;SDS011;5411;58.386;15.560;2023-07-31T11:41:51;2.17;;;1.70;;
10719;SDS011;5411;58.386;15.560;2023-07-31T11:44:19;2.90;;;1.63;;
10719;SDS011;5411;58.386;15.560;2023-07-31T11:46:56;2.17;;;1.57;;
10719;SDS011;5411;58.386;15.560;2023-07-31T11:49:26;2.00;;;1.30;;
10719;SDS011;5411;58.386;15.560;2023-07-31T11:51:55;1.87;;;1.47;;
10719;SDS011;5411;58.386;15.560;2023-07-31T11:54:23;3.83;;;1.53;;
10719;SDS011;5411;58.386;15.560;2023-07-31T11:56:52;2.10;;;1.40;;
10719;SDS011;5411;58.386;15.560;2023-07-31T11:59:21;2.33;;;1.50;;
10719;SDS011;5411;58.386;15.560;2023-07-31T12:01:49;2.97;;;1.30;;
10719;SDS011;5411;58.386;15.560;2023-07-31T12:04:20;1.77;;;1.30;;
10719;SDS011;5411;58.386;15.560;2023-07-31T12:06:52;3.63;;;1.60;;
10719;SDS011;5411;58.386;15.560;2023-07-31T12:09:24;1.80;;;1.60;;
10719;SDS011;5411;58.386;15.560;2023-07-31T12:11:53;2.13;;;1.47;;
10719;SDS011;5411;58.386;15.560;2023-07-31T12:14:25;2.50;;;1.47;;
10719;SDS011;5411;58.386;15.560;2023-07-31T12:17:14;2.00;;;1.10;;
10719;SDS011;5411;58.386;15.560;2023-07-31T12:19:43;4.33;;;2.07;;
10719;SDS011;5411;58.386;15.560;2023-07-31T12:22:14;2.40;;;1.70;;
10719;SDS011;5411;58.386;15.560;2023-07-31T12:24:43;1.87;;;1.50;;
10719;SDS011;5411;58.386;15.560;2023-07-31T12:27:45;2.00;;;1.50;;
10719;SDS011;5411;58.386;15.560;2023-07-31T12:30:26;3.03;;;1.60;;
10719;SDS011;5411;58.386;15.560;2023-07-31T12:32:54;1.77;;;1.60;;
10719;SDS011;5411;58.386;15.560;2023-07-31T12:35:25;2.57;;;1.47;;
10719;SDS011;5411;58.386;15.560;2023-07-31T12:38:04;2.13;;;1.63;;
10719;SDS011;5411;58.386;15.560;2023-07-31T12:40:32;1.50;;;1.20;;
10719;SDS011;5411;58.386;15.560;2023-07-31T12:43:01;2.00;;;1.50;;
10719;SDS011;5411;58.386;15.560;2023-07-31T12:45:31;2.07;;;1.43;;
10719;SDS011;5411;58.386;15.560;2023-07-31T12:48:00;2.33;;;1.57;;
10719;SDS011;5411;58.386;15.560;2023-07-31T12:50:31;1.90;;;1.47;;
10719;SDS011;5411;58.386;15.560;2023-07-31T12:53:13;2.83;;;1.60;;
10719;SDS011;5411;58.386;15.560;2023-07-31T12:55:43;3.23;;;1.60;;
10719;SDS011;5411;58.386;15.560;2023-07-31T12:58:11;2.37;;;1.57;;
10719;SDS011;5411;58.386;15.560;2023-07-31T13:00:41;1.97;;;1.50;;
10719;SDS011;5411;58.386;15.560;2023-07-31T13:03:09;1.73;;;1.30;;
10719;SDS011;5411;58.386;15.560;2023-07-31T13:05:38;3.53;;;1.60;;
10719;SDS011;5411;58.386;15.560;2023-07-31T13:08:08;1.60;;;1.50;;
10719;SDS011;5411;58.386;15.560;2023-07-31T13:10:38;2.33;;;1.60;;
10719;SDS011;5411;58.386;15.560;2023-07-31T13:13:07;3.07;;;1.60;;
10719;SDS011;5411;58.386;15.560;2023-07-31T13:15:37;1.93;;;1.60;;
10719;SDS011;5411;58.386;15.560;2023-07-31T13:18:05;2.13;;;1.50;;
10719;SDS011;5411;58.386;15.560;2023-07-31T13:20:34;1.47;;;1.37;;
10719;SDS011;5411;58.386;15.560;2023-07-31T13:23:04;2.70;;;1.30;;
10719;SDS011;5411;58.386;15.560;2023-07-31T13:25:32;1.87;;;1.40;;
10719;SDS011;5411;58.386;15.560;2023-07-31T13:28:03;2.67;;;1.50;;
10719;SDS011;5411;58.386;15.560;2023-07-31T13:30:31;1.43;;;1.17;;
10719;SDS011;5411;58.386;15.560;2023-07-31T13:32:59;3.10;;;1.60;;
10719;SDS011;5411;58.386;15.560;2023-07-31T13:35:28;1.87;;;1.40;;
10719;SDS011;5411;58.386;15.560;2023-07-31T13:37:59;1.90;;;1.20;;
10719;SDS011;5411;58.386;15.560;2023-07-31T13:40:27;2.67;;;1.50;;
10719;SDS011;5411;58.386;15.560;2023-07-31T13:42:56;3.33;;;1.27;;
10719;SDS011;5411;58.386;15.560;2023-07-31T13:45:25;3.00;;;1.33;;
10719;SDS011;5411;58.386;15.560;2023-07-31T13:47:54;3.53;;;1.23;;
10719;SDS011;5411;58.386;15.560;2023-07-31T13:50:22;1.70;;;1.20;;
10719;SDS011;5411;58.386;15.560;2023-07-31T13:52:51;2.20;;;1.27;;
10719;SDS011;5411;58.386;15.560;2023-07-31T13:55:20;1.60;;;1.23;;
10719;SDS011;5411;58.386;15.560;2023-07-31T13:57:51;2.47;;;1.40;;
10719;SDS011;5411;58.386;15.560;2023-07-31T14:00:20;2.63;;;1.30;;
10719;SDS011;5411;58.386;15.560;2023-07-31T14:02:50;3.00;;;1.10;;
10719;SDS011;5411;58.386;15.560;2023-07-31T14:05:18;1.60;;;1.47;;
10719;SDS011;5411;58.386;15.560;2023-07-31T14:07:49;2.77;;;1.23;;
10719;SDS011;5411;58.386;15.560;2023-07-31T14:10:17;1.07;;;1.00;;
10719;SDS011;5411;58.386;15.560;2023-07-31T14:12:46;1.57;;;1.30;;
10719;SDS011;5411;58.386;15.560;2023-07-31T14:15:14;1.20;;;1.10;;
10719;SDS011;5411;58.386;15.560;2023-07-31T14:17:45;1.40;;;0.80;;
10719;SDS011;5411;58.386;15.560;2023-07-31T14:20:15;0.90;;;0.90;;
10719;SDS011;5411;58.386;15.560;2023-07-31T14:22:47;0.93;;;0.80;;
10719;SDS011;5411;58.386;15.560;2023-07-31T14:25:15;1.60;;;0.90;;
10719;SDS011;5411;58.386;15.560;2023-07-31T14:27:45;0.87;;;0.80;;
10719;SDS011;5411;58.386;15.560;2023-07-31T14:30:13;0.90;;;0.90;;
10719;SDS011;5411;58.386;15.560;2023-07-31T14:32:42;0.80;;;0.80;;
10719;SDS011;5411;58.386;15.560;2023-07-31T14:35:11;1.97;;;0.90;;
10719;SDS011;5411;58.386;15.560;2023-07-31T14:37:41;1.83;;;1.30;;
10719;SDS011;5411;58.386;15.560;2023-07-31T14:40:12;0.97;;;0.83;;
10719;SDS011;5411;58.386;15.560;2023-07-31T14:42:41;0.93;;;0.80;;
10719;SDS011;5411;58.386;15.560;2023-07-31T14:45:10;1.77;;;0.90;;
10719;SDS011;5411;58.386;15.560;2023-07-31T14:47:38;1.03;;;0.90;;
10719;SDS011;5411;58.386;15.560;2023-07-31T14:50:07;1.80;;;0.90;;
10719;SDS011;5411;58.386;15.560;2023-07-31T14:52:36;2.00;;;1.00;;
10719;SDS011;5411;58.386;15.560;2023-07-31T14:55:06;1.00;;;0.90;;
10719;SDS011;5411;58.386;15.560;2023-07-31T14:57:37;2.97;;;1.10;;
10719;SDS011;5411;58.386;15.560;2023-07-31T15:00:06;0.97;;;0.80;;
10719;SDS011;5411;58.386;15.560;2023-07-31T15:02:37;1.43;;;0.80;;
10719;SDS011;5411;58.386;15.560;2023-07-31T15:05:05;1.27;;;1.00;;
10719;SDS011;5411;58.386;15.560;2023-07-31T15:07:35;1.07;;;0.83;;